Time;durP1;ratioP1;P1;durP2;ratioP2;P2;SDS_P1;SDS_P2;PMS_P1;PMS_P2;Temp;Humidity;BMP_temperature;BMP_pressure;BME280_temperature;BME280_humidity;BME280_pressure;Samples;Min_cycle;Max_cycle;Signal;HPM_P1;HPM_P2
2022/01/29 00:00:46;;;;;;;57.63;25.02;;;;;;;;;;5089335;28;20067;-77
2022/01/29 00:03:13;;;;;;;69.00;25.60;;;;;;;;;;5105619;27;20492;-76
2022/01/29 00:05:39;;;;;;;60.35;24.60;;;;;;;;;;5091021;28;20596;-76
2022/01/29 00:08:06;;;;;;;54.83;24.35;;;;;;;;;;5090639;28;20634;-76
2022/01/29 00:10:32;;;;;;;63.03;25.20;;;;;;;;;;5108056;28;20122;-77
2022/01/29 00:12:58;;;;;;;65.25;26.02;;;;;;;;;;5109325;28;20109;-77
2022/01/29 00:15:25;;;;;;;64.90;25.95;;;;;;;;;;5090641;28;20079;-76
2022/01/29 00:17:51;;;;;;;67.20;25.88;;;;;;;;;;5109317;28;20052;-76
2022/01/29 00:20:17;;;;;;;68.28;24.90;;;;;;;;;;5108384;28;20765;-77
2022/01/29 00:22:44;;;;;;;60.33;24.05;;;;;;;;;;5109351;28;20097;-77
2022/01/29 00:25:10;;;;;;;62.15;25.55;;;;;;;;;;5091007;28;20157;-76
2022/01/29 00:27:37;;;;;;;61.60;25.27;;;;;;;;;;5091606;28;20482;-76
2022/01/29 00:30:08;;;;;;;63.13;24.55;;;;;;;;;;5090748;28;20062;-77
2022/01/29 00:32:34;;;;;;;;;;;;;;;;;;5084427;28;20078;-77
2022/01/29 00:35:00;;;;;;;61.65;24.23;;;;;;;;;;5090286;28;44031;-76
2022/01/29 00:37:27;;;;;;;64.88;25.70;;;;;;;;;;5108374;27;20130;-76
2022/01/29 00:39:54;;;;;;;61.75;25.23;;;;;;;;;;5108675;27;20512;-76
2022/01/29 00:42:20;;;;;;;64.07;25.58;;;;;;;;;;5090968;28;20055;-76
2022/01/29 00:44:49;;;;;;;59.38;23.27;;;;;;;;;;5100870;28;20588;-77
2022/01/29 00:47:16;;;;;;;59.53;24.70;;;;;;;;;;5108332;27;20109;-77
2022/01/29 00:49:42;;;;;;;60.30;24.00;;;;;;;;;;5075654;28;20056;-76
2022/01/29 00:52:09;;;;;;;59.47;24.17;;;;;;;;;;5102099;27;20528;-76
2022/01/29 00:54:36;;;;;;;59.72;22.70;;;;;;;;;;5089357;28;20099;-76
2022/01/29 00:57:02;;;;;;;52.45;22.15;;;;;;;;;;5089418;28;20568;-77
2022/01/29 00:59:28;;;;;;;53.50;20.98;;;;;;;;;;5108762;28;20051;-76
2022/01/29 01:01:55;;;;;;;60.90;23.30;;;;;;;;;;5108610;28;20056;-76
2022/01/29 01:04:21;;;;;;;61.22;23.52;;;;;;;;;;5108571;28;20646;-77
2022/01/29 01:06:48;;;;;;;57.65;22.65;;;;;;;;;;5107237;27;20048;-76
2022/01/29 01:09:14;;;;;;;51.92;20.90;;;;;;;;;;5107407;28;20105;-76
2022/01/29 01:11:40;;;;;;;60.15;22.20;;;;;;;;;;5108386;28;20105;-77
2022/01/29 01:14:07;;;;;;;50.47;20.30;;;;;;;;;;5108217;27;20056;-77
2022/01/29 01:16:33;;;;;;;55.03;20.55;;;;;;;;;;5108662;28;20051;-76
2022/01/29 01:19:00;;;;;;;57.97;21.02;;;;;;;;;;5108045;27;20044;-76
2022/01/29 01:21:26;;;;;;;50.22;20.13;;;;;;;;;;5109930;28;20060;-76
2022/01/29 01:23:52;;;;;;;50.70;20.98;;;;;;;;;;5080359;27;20056;-76
2022/01/29 01:26:19;;;;;;;52.95;21.05;;;;;;;;;;5112271;28;20056;-77
2022/01/29 01:28:46;;;;;;;45.72;18.65;;;;;;;;;;5111864;28;20109;-79
2022/01/29 01:31:18;;;;;;;44.75;19.73;;;;;;;;;;5094148;28;20052;-77
2022/01/29 01:33:46;;;;;;;49.75;21.38;;;;;;;;;;5094010;28;20495;-76
2022/01/29 01:36:15;;;;;;;50.17;21.25;;;;;;;;;;5093449;28;20097;-77
2022/01/29 01:38:56;;;;;;;48.60;19.88;;;;;;;;;;5111187;28;20044;-76
2022/01/29 01:41:25;;;;;;;50.67;20.60;;;;;;;;;;5092772;28;20055;-77
2022/01/29 01:43:58;;;;;;;43.60;18.70;;;;;;;;;;5110855;28;20048;-76
2022/01/29 01:46:25;;;;;;;50.08;20.67;;;;;;;;;;5091386;27;20053;-76
2022/01/29 01:48:51;;;;;;;51.85;20.42;;;;;;;;;;5111426;28;20545;-76
2022/01/29 01:51:18;;;;;;;60.70;21.60;;;;;;;;;;5092833;28;20111;-76
2022/01/29 01:53:44;;;;;;;48.03;21.23;;;;;;;;;;5094055;28;20056;-77
2022/01/29 01:56:10;;;;;;;53.33;19.58;;;;;;;;;;5108771;28;20083;-76
2022/01/29 01:58:37;;;;;;;47.83;19.88;;;;;;;;;;5092637;28;20078;-76
2022/01/29 02:01:03;;;;;;;51.45;20.25;;;;;;;;;;5111681;28;20503;-76
2022/01/29 02:03:30;;;;;;;49.13;19.73;;;;;;;;;;5111491;28;20143;-77
2022/01/29 02:05:57;;;;;;;52.17;20.75;;;;;;;;;;5091623;28;20052;-77
2022/01/29 02:08:24;;;;;;;49.13;19.55;;;;;;;;;;5091483;28;20052;-77
2022/01/29 02:10:51;;;;;;;57.10;20.92;;;;;;;;;;5111595;28;20048;-77
2022/01/29 02:13:17;;;;;;;51.60;20.40;;;;;;;;;;5107774;28;20047;-77
2022/01/29 02:15:46;;;;;;;44.97;18.45;;;;;;;;;;5087424;28;20088;-77
2022/01/29 02:18:15;;;;;;;40.22;17.48;;;;;;;;;;5091707;28;20114;-77
2022/01/29 02:20:43;;;;;;;46.95;17.52;;;;;;;;;;5092669;28;20052;-76
2022/01/29 02:23:09;;;;;;;45.72;17.35;;;;;;;;;;5110449;28;20110;-76
2022/01/29 02:25:36;;;;;;;46.08;17.02;;;;;;;;;;5092790;28;20044;-77
2022/01/29 02:28:04;;;;;;;39.13;16.25;;;;;;;;;;5110706;28;20052;-77
2022/01/29 02:30:32;;;;;;;39.13;15.68;;;;;;;;;;5087866;28;20661;-77
2022/01/29 02:33:00;;;;;;;36.75;16.02;;;;;;;;;;5089626;28;20106;-76
2022/01/29 02:35:27;;;;;;;39.63;15.48;;;;;;;;;;5099421;28;20499;-76
2022/01/29 02:37:55;;;;;;;37.13;14.98;;;;;;;;;;5091722;28;20098;-77
2022/01/29 02:40:25;;;;;;;40.67;15.95;;;;;;;;;;5110368;28;20726;-77
2022/01/29 02:42:53;;;;;;;38.60;14.98;;;;;;;;;;5110679;28;20130;-77
2022/01/29 02:45:20;;;;;;;35.15;14.25;;;;;;;;;;5110511;27;20048;-77
2022/01/29 02:47:47;;;;;;;39.72;15.10;;;;;;;;;;5091400;28;20056;-77
2022/01/29 02:50:13;;;;;;;33.08;13.80;;;;;;;;;;5110105;28;20507;-76
2022/01/29 02:52:40;;;;;;;31.35;12.98;;;;;;;;;;5110248;28;20087;-76
2022/01/29 02:55:07;;;;;;;34.42;14.00;;;;;;;;;;5090803;28;20056;-76
2022/01/29 02:57:33;;;;;;;40.55;14.48;;;;;;;;;;5091186;28;20048;-76
2022/01/29 03:00:00;;;;;;;31.95;13.57;;;;;;;;;;5092013;28;20079;-77
2022/01/29 03:02:28;;;;;;;38.10;15.07;;;;;;;;;;5110772;27;20499;-77
2022/01/29 03:04:56;;;;;;;39.42;14.20;;;;;;;;;;5086107;28;20091;-77
2022/01/29 03:07:23;;;;;;;37.28;14.88;;;;;;;;;;5089839;28;20435;-76
2022/01/29 03:09:49;;;;;;;44.10;15.93;;;;;;;;;;5109886;28;20461;-77
2022/01/29 03:12:16;;;;;;;40.83;15.98;;;;;;;;;;5109481;28;20106;-77
2022/01/29 03:14:42;;;;;;;39.35;14.55;;;;;;;;;;5110559;27;20536;-77
2022/01/29 03:17:08;;;;;;;41.50;16.17;;;;;;;;;;5091157;28;20098;-77
2022/01/29 03:19:35;;;;;;;45.58;16.13;;;;;;;;;;5091418;28;20527;-77
2022/01/29 03:22:01;;;;;;;44.38;16.10;;;;;;;;;;5082532;28;20110;-77
2022/01/29 03:24:28;;;;;;;48.05;17.80;;;;;;;;;;5084128;28;20048;-76
2022/01/29 03:26:54;;;;;;;46.05;17.15;;;;;;;;;;5090938;28;20117;-77
2022/01/29 03:29:20;;;;;;;41.92;16.35;;;;;;;;;;5109308;28;20564;-76
2022/01/29 03:31:47;;;;;;;54.78;18.17;;;;;;;;;;5109475;28;20560;-76
2022/01/29 03:34:13;;;;;;;54.58;18.05;;;;;;;;;;5109306;27;20063;-76
2022/01/29 03:36:40;;;;;;;51.40;17.55;;;;;;;;;;5090644;28;20049;-76
2022/01/29 03:39:06;;;;;;;43.20;16.75;;;;;;;;;;5081741;28;20052;-77
2022/01/29 03:41:32;;;;;;;52.58;18.35;;;;;;;;;;5083846;28;20080;-76
2022/01/29 03:44:04;;;;;;;52.42;18.65;;;;;;;;;;5108535;27;20825;-76
2022/01/29 03:46:32;;;;;;;55.53;19.15;;;;;;;;;;5088885;28;20790;-77
2022/01/29 03:48:59;;;;;;;48.50;18.65;;;;;;;;;;5095893;28;20083;-76
2022/01/29 03:51:25;;;;;;;56.40;19.85;;;;;;;;;;5089441;28;20052;-76
2022/01/29 03:53:51;;;;;;;57.90;18.92;;;;;;;;;;5089925;28;20106;-77
2022/01/29 03:56:18;;;;;;;53.58;17.75;;;;;;;;;;5105849;27;20625;-77
2022/01/29 03:58:45;;;;;;;56.58;18.38;;;;;;;;;;5109109;27;20571;-76
2022/01/29 04:01:11;;;;;;;55.95;20.38;;;;;;;;;;5108967;28;20060;-77
2022/01/29 04:03:38;;;;;;;59.25;19.42;;;;;;;;;;5108228;28;20523;-77
2022/01/29 04:06:04;;;;;;;58.70;20.40;;;;;;;;;;5089841;28;20056;-76
2022/01/29 04:08:33;;;;;;;53.20;18.63;;;;;;;;;;5090401;28;20079;-77
2022/01/29 04:10:59;;;;;;;63.08;20.20;;;;;;;;;;5108001;28;20102;-77
2022/01/29 04:13:27;;;;;;;46.45;16.27;;;;;;;;;;5097239;28;20126;-77
2022/01/29 04:15:53;;;;;;;51.08;18.88;;;;;;;;;;5076751;27;20503;-77
2022/01/29 04:18:20;;;;;;;50.30;17.58;;;;;;;;;;5089573;28;20139;-77
2022/01/29 04:20:46;;;;;;;57.72;18.95;;;;;;;;;;5090047;28;20083;-77
2022/01/29 04:23:12;;;;;;;51.67;18.83;;;;;;;;;;5108039;28;20161;-77
2022/01/29 04:25:39;;;;;;;55.40;17.90;;;;;;;;;;5108402;27;20568;-77
2022/01/29 04:28:07;;;;;;;55.30;18.27;;;;;;;;;;5090156;28;20082;-77
2022/01/29 04:30:42;;;;;;;61.78;18.17;;;;;;;;;;5076844;28;20529;-77
2022/01/29 04:35:44;;;;;;;45.42;17.60;;;;;;;;;;5108542;28;20507;-77
2022/01/29 04:38:11;;;;;;;52.00;17.52;;;;;;;;;;5108720;28;20568;-77
2022/01/29 04:40:37;;;;;;;57.30;18.08;;;;;;;;;;5090164;28;20427;-77
2022/01/29 04:43:04;;;;;;;52.65;19.27;;;;;;;;;;5089937;27;20098;-77
2022/01/29 04:45:31;;;;;;;53.20;17.20;;;;;;;;;;5089792;28;20550;-77
2022/01/29 04:47:58;;;;;;;48.55;17.95;;;;;;;;;;5089709;28;20491;-77
2022/01/29 04:50:24;;;;;;;57.88;18.75;;;;;;;;;;5089417;28;20098;-77
2022/01/29 04:52:51;;;;;;;49.75;18.25;;;;;;;;;;5107290;27;20491;-76
2022/01/29 04:55:17;;;;;;;52.33;18.77;;;;;;;;;;5089958;28;20855;-77
2022/01/29 04:57:43;;;;;;;48.58;18.65;;;;;;;;;;5089643;27;20499;-77
2022/01/29 05:00:11;;;;;;;57.78;19.50;;;;;;;;;;5089577;28;20552;-77
2022/01/29 05:02:38;;;;;;;55.40;19.02;;;;;;;;;;5108136;28;20164;-76
2022/01/29 05:05:05;;;;;;;57.72;19.80;;;;;;;;;;5087998;28;20562;-77
2022/01/29 05:07:31;;;;;;;50.03;19.33;;;;;;;;;;5089255;27;20563;-76
2022/01/29 05:09:58;;;;;;;58.47;19.75;;;;;;;;;;5088570;28;20498;-77
2022/01/29 05:12:30;;;;;;;54.58;19.75;;;;;;;;;;5090636;28;20101;-76
2022/01/29 05:15:08;;;;;;;54.38;19.25;;;;;;;;;;5090847;28;20121;-77
2022/01/29 05:28:35;;;;;;;45.90;19.42;;;;;;;;;;5107402;27;20469;-77
2022/01/29 05:31:02;;;;;;;57.47;18.38;;;;;;;;;;5107723;28;20055;-76
2022/01/29 05:33:28;;;;;;;56.63;19.08;;;;;;;;;;5089453;28;20056;-76
2022/01/29 05:35:54;;;;;;;47.20;19.02;;;;;;;;;;5106371;28;20133;-77
2022/01/29 05:38:21;;;;;;;50.45;19.10;;;;;;;;;;5077265;28;20049;-77
2022/01/29 05:40:47;;;;;;;45.20;18.63;;;;;;;;;;5069965;28;20518;-77
2022/01/29 05:43:13;;;;;;;45.67;18.17;;;;;;;;;;5069578;28;20052;-77
2022/01/29 05:45:40;;;;;;;50.67;18.10;;;;;;;;;;5095000;27;20110;-77
2022/01/29 05:48:06;;;;;;;46.90;17.85;;;;;;;;;;5088877;28;20052;-76
2022/01/29 05:50:33;;;;;;;47.10;17.95;;;;;;;;;;5107521;28;20102;-76
2022/01/29 05:52:59;;;;;;;46.70;16.90;;;;;;;;;;5107935;28;20052;-76
2022/01/29 05:55:25;;;;;;;40.95;17.20;;;;;;;;;;5096034;28;20053;-76
2022/01/29 05:57:52;;;;;;;42.78;16.60;;;;;;;;;;5096547;27;20493;-77
2022/01/29 06:00:18;;;;;;;39.60;15.95;;;;;;;;;;5089308;28;20495;-77
2022/01/29 06:02:45;;;;;;;35.67;15.43;;;;;;;;;;5088770;28;20113;-77
2022/01/29 06:05:11;;;;;;;39.03;15.55;;;;;;;;;;5089637;28;20114;-76
2022/01/29 06:07:38;;;;;;;39.00;15.77;;;;;;;;;;5111329;27;20544;-79
2022/01/29 06:10:04;;;;;;;40.22;16.00;;;;;;;;;;5111683;27;20511;-77
2022/01/29 06:12:36;;;;;;;37.15;14.60;;;;;;;;;;5089097;28;20055;-77
2022/01/29 06:15:02;;;;;;;29.45;13.38;;;;;;;;;;5092191;27;20114;-77
2022/01/29 06:17:28;;;;;;;36.15;14.10;;;;;;;;;;5110265;27;20052;-77
2022/01/29 06:19:55;;;;;;;33.60;12.82;;;;;;;;;;5092204;28;20056;-76
2022/01/29 06:22:22;;;;;;;35.22;13.85;;;;;;;;;;5109945;28;20114;-77
2022/01/29 06:24:49;;;;;;;29.88;11.55;;;;;;;;;;5111331;27;20514;-77
2022/01/29 06:27:15;;;;;;;34.42;12.95;;;;;;;;;;5091165;28;20056;-77
2022/01/29 06:29:41;;;;;;;33.20;13.00;;;;;;;;;;5077965;28;20126;-77
2022/01/29 06:32:08;;;;;;;29.77;11.93;;;;;;;;;;5072560;28;20083;-77
2022/01/29 06:34:34;;;;;;;37.08;14.18;;;;;;;;;;5108811;28;20056;-76
2022/01/29 06:37:01;;;;;;;35.00;13.35;;;;;;;;;;5091724;28;20052;-77
2022/01/29 06:39:28;;;;;;;33.47;12.57;;;;;;;;;;5110117;28;20876;-76
2022/01/29 06:41:54;;;;;;;43.85;14.82;;;;;;;;;;5110304;28;20056;-76
2022/01/29 06:44:20;;;;;;;42.70;14.80;;;;;;;;;;5091994;28;20109;-77
2022/01/29 06:46:47;;;;;;;35.35;15.43;;;;;;;;;;5089991;28;20709;-76
2022/01/29 06:49:13;;;;;;;42.30;15.05;;;;;;;;;;5091367;28;20113;-76
2022/01/29 06:51:40;;;;;;;38.75;14.95;;;;;;;;;;5089580;28;20514;-76
2022/01/29 06:54:06;;;;;;;36.08;15.20;;;;;;;;;;5098158;28;20052;-76
2022/01/29 06:56:32;;;;;;;46.92;15.63;;;;;;;;;;5109683;27;20044;-77
2022/01/29 06:58:59;;;;;;;38.72;15.30;;;;;;;;;;5109653;28;20105;-77
2022/01/29 07:01:35;;;;;;;36.83;15.52;;;;;;;;;;5093035;28;20078;-77
2022/01/29 07:04:02;;;;;;;35.20;15.23;;;;;;;;;;5108044;27;20159;-77
2022/01/29 07:06:28;;;;;;;48.63;17.55;;;;;;;;;;5092281;27;20056;-76
2022/01/29 07:08:55;;;;;;;38.75;15.88;;;;;;;;;;5108954;28;20093;-77
2022/01/29 07:11:23;;;;;;;39.85;15.25;;;;;;;;;;5091324;28;20056;-77
2022/01/29 07:14:00;;;;;;;47.22;15.82;;;;;;;;;;5091275;28;20580;-77
2022/01/29 07:16:27;;;;;;;46.35;15.48;;;;;;;;;;5091462;28;20114;-77
2022/01/29 07:18:53;;;;;;;42.10;16.88;;;;;;;;;;5090198;28;20048;-76
2022/01/29 07:21:20;;;;;;;42.08;15.90;;;;;;;;;;5081185;28;20126;-77
2022/01/29 07:23:46;;;;;;;39.20;15.88;;;;;;;;;;5104577;27;20048;-77
2022/01/29 07:26:12;;;;;;;36.20;15.38;;;;;;;;;;5108471;27;20083;-77
2022/01/29 07:28:39;;;;;;;41.70;15.23;;;;;;;;;;5096774;28;20083;-77
2022/01/29 07:31:05;;;;;;;39.08;16.25;;;;;;;;;;5109291;28;20056;-77
2022/01/29 07:33:32;;;;;;;37.78;15.65;;;;;;;;;;5112767;27;20075;-77
2022/01/29 07:35:59;;;;;;;38.97;14.38;;;;;;;;;;5114449;27;20105;-77
2022/01/29 07:38:26;;;;;;;39.15;15.60;;;;;;;;;;5087473;28;21488;-77
2022/01/29 07:40:52;;;;;;;33.25;14.32;;;;;;;;;;5091084;28;20454;-76
2022/01/29 07:43:18;;;;;;;37.15;15.88;;;;;;;;;;5107921;28;20102;-77
2022/01/29 07:45:45;;;;;;;34.03;14.57;;;;;;;;;;5109737;28;20052;-77
2022/01/29 07:48:11;;;;;;;40.35;14.80;;;;;;;;;;5090881;28;20056;-77
2022/01/29 07:50:38;;;;;;;32.60;14.15;;;;;;;;;;5090103;28;20079;-77
2022/01/29 07:53:04;;;;;;;33.30;14.00;;;;;;;;;;5107497;28;20056;-76
2022/01/29 07:55:31;;;;;;;38.97;13.77;;;;;;;;;;5083109;28;20048;-77
2022/01/29 07:58:07;;;;;;;33.35;12.95;;;;;;;;;;5089707;28;20056;-76
2022/01/29 08:00:34;;;;;;;28.88;11.25;;;;;;;;;;5090348;28;20114;-77
2022/01/29 08:03:01;;;;;;;31.98;12.70;;;;;;;;;;5090745;28;20051;-76
2022/01/29 08:05:27;;;;;;;30.85;12.50;;;;;;;;;;5111158;27;20457;-76
2022/01/29 08:07:54;;;;;;;33.58;13.65;;;;;;;;;;5111237;27;20108;-77
2022/01/29 08:10:20;;;;;;;33.20;12.23;;;;;;;;;;5122818;27;20052;-77
2022/01/29 08:12:46;;;;;;;29.55;12.23;;;;;;;;;;5098898;28;20477;-77
2022/01/29 08:15:13;;;;;;;29.10;11.55;;;;;;;;;;5113023;27;20077;-77
2022/01/29 08:17:39;;;;;;;31.02;12.27;;;;;;;;;;5089972;28;20101;-77
2022/01/29 08:20:06;;;;;;;32.60;12.40;;;;;;;;;;5087034;28;20106;-77
2022/01/29 08:22:32;;;;;;;33.08;12.38;;;;;;;;;;5097117;28;20056;-77
2022/01/29 08:24:59;;;;;;;36.38;12.13;;;;;;;;;;5090158;28;20098;-77
2022/01/29 08:27:25;;;;;;;31.00;11.23;;;;;;;;;;5107104;28;20052;-77
2022/01/29 08:29:52;;;;;;;31.55;11.57;;;;;;;;;;5089143;28;20555;-77
2022/01/29 08:32:19;;;;;;;27.13;10.75;;;;;;;;;;5089965;28;20056;-76
2022/01/29 08:34:47;;;;;;;31.35;11.63;;;;;;;;;;5108701;28;20105;-76
2022/01/29 08:37:13;;;;;;;24.92;10.27;;;;;;;;;;5090661;28;20105;-76
2022/01/29 08:39:40;;;;;;;27.23;10.73;;;;;;;;;;5090100;28;20048;-77
2022/01/29 08:42:07;;;;;;;29.08;10.98;;;;;;;;;;5088957;28;20048;-76
2022/01/29 08:44:34;;;;;;;28.88;10.98;;;;;;;;;;5103246;28;20106;-76
2022/01/29 08:47:01;;;;;;;28.17;10.80;;;;;;;;;;5085741;28;20071;-77
2022/01/29 08:49:27;;;;;;;31.42;11.43;;;;;;;;;;5099415;28;20078;-76
2022/01/29 08:51:54;;;;;;;29.23;11.02;;;;;;;;;;5107605;28;20105;-77
2022/01/29 08:54:20;;;;;;;29.13;10.82;;;;;;;;;;5107960;28;20065;-76
2022/01/29 08:56:46;;;;;;;31.90;12.15;;;;;;;;;;5108212;28;20094;-76
2022/01/29 08:59:13;;;;;;;22.58;9.80;;;;;;;;;;5077765;28;20137;-77
2022/01/29 09:01:39;;;;;;;22.58;10.00;;;;;;;;;;5105161;28;20048;-77
2022/01/29 09:04:06;;;;;;;30.38;9.82;;;;;;;;;;5106438;27;20576;-76
2022/01/29 09:06:32;;;;;;;29.60;10.65;;;;;;;;;;5088680;28;20498;-76
2022/01/29 09:08:59;;;;;;;26.65;10.45;;;;;;;;;;5107770;28;20048;-77
2022/01/29 09:11:25;;;;;;;26.98;10.73;;;;;;;;;;5082065;27;20106;-76
2022/01/29 09:13:51;;;;;;;23.38;9.77;;;;;;;;;;5107767;27;20047;-77
2022/01/29 09:16:18;;;;;;;27.40;9.45;;;;;;;;;;5094197;27;20100;-77
2022/01/29 09:18:45;;;;;;;21.88;8.73;;;;;;;;;;5096175;28;20059;-76
2022/01/29 09:21:12;;;;;;;20.17;8.65;;;;;;;;;;5103246;28;20052;-77
2022/01/29 09:23:38;;;;;;;22.00;8.68;;;;;;;;;;5083784;28;20643;-77
2022/01/29 09:26:05;;;;;;;24.85;9.45;;;;;;;;;;5107346;28;20600;-77
2022/01/29 09:28:31;;;;;;;21.40;8.63;;;;;;;;;;5106701;27;20052;-76
2022/01/29 09:30:57;;;;;;;21.60;7.65;;;;;;;;;;5109906;27;20552;-77
2022/01/29 09:33:24;;;;;;;22.17;7.65;;;;;;;;;;5098942;28;20055;-77
2022/01/29 09:35:50;;;;;;;20.25;6.72;;;;;;;;;;5099337;28;20049;-77
2022/01/29 09:38:17;;;;;;;20.92;7.30;;;;;;;;;;5070255;28;20060;-77
2022/01/29 09:40:43;;;;;;;25.02;8.77;;;;;;;;;;5091779;28;20052;-77
2022/01/29 09:43:11;;;;;;;18.15;7.03;;;;;;;;;;5110863;28;20060;-77
2022/01/29 09:45:38;;;;;;;22.80;8.20;;;;;;;;;;5093870;28;20518;-77
2022/01/29 09:48:05;;;;;;;22.40;6.90;;;;;;;;;;5092258;28;20091;-77
2022/01/29 09:50:32;;;;;;;16.88;5.88;;;;;;;;;;5111286;28;20091;-77
2022/01/29 09:52:59;;;;;;;18.75;6.35;;;;;;;;;;5085099;28;20380;-77
2022/01/29 09:55:26;;;;;;;13.15;5.57;;;;;;;;;;5072730;28;20049;-77
2022/01/29 09:57:53;;;;;;;18.30;6.78;;;;;;;;;;5092714;28;20134;-77
2022/01/29 10:00:19;;;;;;;17.13;6.63;;;;;;;;;;5111419;28;20118;-77
2022/01/29 10:03:05;;;;;;;18.85;5.55;;;;;;;;;;5091608;28;20056;-77
2022/01/29 10:05:35;;;;;;;12.73;5.53;;;;;;;;;;5089068;28;20058;-77
2022/01/29 10:08:02;;;;;;;15.73;5.25;;;;;;;;;;5092429;28;20102;-77
2022/01/29 10:10:28;;;;;;;23.85;5.90;;;;;;;;;;5080345;28;20053;-77
2022/01/29 10:12:54;;;;;;;14.98;4.50;;;;;;;;;;5091447;28;20125;-77
2022/01/29 10:15:21;;;;;;;13.30;4.75;;;;;;;;;;5111020;28;20048;-77
2022/01/29 10:17:48;;;;;;;14.93;5.30;;;;;;;;;;5093538;28;20142;-77
2022/01/29 10:20:14;;;;;;;17.23;6.00;;;;;;;;;;5110192;28;20040;-77
2022/01/29 10:22:43;;;;;;;10.85;4.40;;;;;;;;;;5111920;28;20083;-77
2022/01/29 10:25:11;;;;;;;16.20;5.20;;;;;;;;;;5110275;28;20059;-77
2022/01/29 10:27:38;;;;;;;15.95;4.93;;;;;;;;;;5079497;28;20084;-77
2022/01/29 10:30:10;;;;;;;20.33;5.25;;;;;;;;;;5091646;28;20143;-77
2022/01/29 10:32:36;;;;;;;14.73;3.92;;;;;;;;;;5091968;28;20229;-77
2022/01/29 10:35:03;;;;;;;11.55;4.53;;;;;;;;;;5108305;28;20420;-77
2022/01/29 10:37:29;;;;;;;15.52;4.63;;;;;;;;;;5078271;28;20048;-77
2022/01/29 10:39:58;;;;;;;13.50;4.32;;;;;;;;;;5108126;27;20105;-77
2022/01/29 10:42:30;;;;;;;9.65;3.80;;;;;;;;;;5091579;27;20099;-77
2022/01/29 10:44:59;;;;;;;12.50;4.30;;;;;;;;;;5090203;28;20525;-77
2022/01/29 10:47:26;;;;;;;13.13;3.70;;;;;;;;;;5111581;27;20102;-79
2022/01/29 10:49:54;;;;;;;10.45;3.78;;;;;;;;;;5111482;27;20056;-78
2022/01/29 10:52:31;;;;;;;14.35;4.28;;;;;;;;;;5096031;28;20077;-79
2022/01/29 10:55:02;;;;;;;16.27;4.03;;;;;;;;;;5105578;28;20052;-79
2022/01/29 10:57:28;;;;;;;;;;;;;;;;;;5097972;28;20102;-78
2022/01/29 10:59:54;;;;;;;11.20;3.42;;;;;;;;;;5111112;28;46626;-77
2022/01/29 11:02:23;;;;;;;11.68;3.55;;;;;;;;;;5083399;28;20048;-77
2022/01/29 11:04:49;;;;;;;13.30;3.03;;;;;;;;;;5090806;28;20052;-77
2022/01/29 11:07:24;;;;;;;10.40;2.50;;;;;;;;;;5097777;28;20060;-77
2022/01/29 11:09:51;;;;;;;16.27;3.17;;;;;;;;;;5089394;28;20056;-78
2022/01/29 11:12:18;;;;;;;10.82;2.80;;;;;;;;;;5080953;28;20051;-78
2022/01/29 11:14:47;;;;;;;9.68;2.33;;;;;;;;;;5113751;28;20158;-79
2022/01/29 11:17:15;;;;;;;16.13;2.88;;;;;;;;;;5091838;28;20106;-80
2022/01/29 11:19:41;;;;;;;9.68;2.53;;;;;;;;;;5074867;28;20056;-80
2022/01/29 11:22:08;;;;;;;8.75;1.90;;;;;;;;;;5095215;28;20118;-79
2022/01/29 11:24:38;;;;;;;5.97;1.70;;;;;;;;;;5093534;28;20048;-79
2022/01/29 11:27:23;;;;;;;18.83;2.60;;;;;;;;;;5081692;28;20130;-79
2022/01/29 11:30:01;;;;;;;11.68;2.58;;;;;;;;;;5085755;28;20052;-79
2022/01/29 11:32:29;;;;;;;12.95;2.20;;;;;;;;;;5085889;28;20079;-78
2022/01/29 11:35:02;;;;;;;6.85;1.90;;;;;;;;;;5104391;27;20249;-79
2022/01/29 11:37:48;;;;;;;9.63;2.40;;;;;;;;;;5104001;27;20576;-78
2022/01/29 11:40:22;;;;;;;7.57;1.95;;;;;;;;;;5089790;28;20600;-79
2022/01/29 11:42:54;;;;;;;8.07;1.98;;;;;;;;;;5086781;28;20091;-78
2022/01/29 11:45:33;;;;;;;14.82;2.22;;;;;;;;;;5104035;27;20551;-79
2022/01/29 11:47:59;;;;;;;5.80;1.80;;;;;;;;;;5080498;28;20080;-79
2022/01/29 11:50:28;;;;;;;10.10;2.20;;;;;;;;;;5082422;28;20074;-79
2022/01/29 11:52:56;;;;;;;5.57;1.70;;;;;;;;;;5088355;27;20106;-79
2022/01/29 11:55:52;;;;;;;8.77;1.92;;;;;;;;;;5113894;28;20121;-80
2022/01/29 11:58:30;;;;;;;7.90;2.25;;;;;;;;;;5096294;28;20129;-79
2022/01/29 12:00:57;;;;;;;12.05;2.25;;;;;;;;;;5112445;28;20548;-80
2022/01/29 12:03:32;;;;;;;11.65;2.50;;;;;;;;;;5093693;28;20091;-78
2022/01/29 12:06:05;;;;;;;6.82;2.20;;;;;;;;;;5109872;28;20055;-78
2022/01/29 12:08:38;;;;;;;5.82;2.25;;;;;;;;;;5107221;28;20071;-79
2022/01/29 12:11:13;;;;;;;9.48;2.53;;;;;;;;;;5091751;28;20048;-79
2022/01/29 12:13:43;;;;;;;9.23;2.63;;;;;;;;;;5093723;28;20105;-79
2022/01/29 12:16:29;;;;;;;31.15;4.85;;;;;;;;;;5101337;28;20086;-79
2022/01/29 12:18:56;;;;;;;8.35;2.97;;;;;;;;;;5110150;28;20109;-79
2022/01/29 12:21:22;;;;;;;7.07;2.20;;;;;;;;;;5086725;28;20056;-79
2022/01/29 12:23:50;;;;;;;9.52;2.25;;;;;;;;;;5111626;28;20102;-79
2022/01/29 12:26:19;;;;;;;9.13;3.60;;;;;;;;;;5086588;27;20110;-78
2022/01/29 12:28:47;;;;;;;8.52;2.55;;;;;;;;;;5089860;28;20048;-79
2022/01/29 12:31:15;;;;;;;8.40;2.10;;;;;;;;;;5093276;28;20130;-79
2022/01/29 12:33:41;;;;;;;11.80;2.50;;;;;;;;;;5093970;28;20139;-79
2022/01/29 12:36:09;;;;;;;6.35;1.92;;;;;;;;;;5093808;28;20064;-79
2022/01/29 12:38:40;;;;;;;8.80;2.35;;;;;;;;;;5073836;28;20091;-79
2022/01/29 12:41:09;;;;;;;6.60;2.00;;;;;;;;;;5104659;27;20113;-79
2022/01/29 12:43:40;;;;;;;8.25;2.25;;;;;;;;;;5111861;27;20056;-79
2022/01/29 12:46:06;;;;;;;;;;;;;;;;;;5112237;28;20063;-79
2022/01/29 12:48:33;;;;;;;7.47;1.80;;;;;;;;;;5110882;27;47905;-79
2022/01/29 12:51:03;;;;;;;8.15;2.05;;;;;;;;;;5092273;28;20218;-79
2022/01/29 12:53:33;;;;;;;8.27;2.33;;;;;;;;;;5092651;28;20139;-79
2022/01/29 12:56:18;;;;;;;9.75;2.17;;;;;;;;;;5091992;28;20051;-79
2022/01/29 12:58:50;;;;;;;9.23;2.80;;;;;;;;;;5106497;28;20587;-79
2022/01/29 13:01:19;;;;;;;7.43;2.58;;;;;;;;;;5109501;28;20056;-79
2022/01/29 13:03:46;;;;;;;13.30;2.95;;;;;;;;;;5087824;28;20144;-78
2022/01/29 13:06:14;;;;;;;7.07;2.67;;;;;;;;;;5105545;28;20934;-78
2022/01/29 13:08:41;;;;;;;7.85;2.35;;;;;;;;;;5108134;28;20109;-79
2022/01/29 13:11:28;;;;;;;5.68;2.03;;;;;;;;;;5092074;28;20056;-79
2022/01/29 13:13:55;;;;;;;9.55;2.20;;;;;;;;;;5103933;27;20063;-79
2022/01/29 13:16:29;;;;;;;9.18;2.42;;;;;;;;;;5073539;28;20095;-79
2022/01/29 13:18:56;;;;;;;9.75;2.47;;;;;;;;;;5103008;28;20063;-79
2022/01/29 13:21:26;;;;;;;8.35;2.20;;;;;;;;;;5109166;28;20052;-79
2022/01/29 13:23:53;;;;;;;9.85;2.70;;;;;;;;;;5086921;28;20048;-79
2022/01/29 13:26:20;;;;;;;8.18;2.90;;;;;;;;;;5092448;28;20089;-78
2022/01/29 13:28:56;;;;;;;7.15;2.60;;;;;;;;;;5111419;27;20102;-79
2022/01/29 13:31:26;;;;;;;8.52;1.75;;;;;;;;;;5111938;28;20055;-79
2022/01/29 13:33:52;;;;;;;7.60;2.47;;;;;;;;;;5104132;28;20057;-79
2022/01/29 13:36:29;;;;;;;14.38;2.97;;;;;;;;;;5083177;28;20056;-79
2022/01/29 13:39:02;;;;;;;6.38;2.30;;;;;;;;;;5085631;28;20048;-79
2022/01/29 13:41:29;;;;;;;9.05;2.15;;;;;;;;;;5110759;28;20052;-79
2022/01/29 13:43:55;;;;;;;8.73;1.98;;;;;;;;;;5093362;28;20059;-79
2022/01/29 13:46:24;;;;;;;9.43;2.42;;;;;;;;;;5111327;28;20143;-79
2022/01/29 13:48:54;;;;;;;8.98;2.30;;;;;;;;;;5111347;27;20052;-79
2022/01/29 13:51:34;;;;;;;6.30;2.10;;;;;;;;;;5088772;28;20044;-79
2022/01/29 13:54:02;;;;;;;5.77;1.80;;;;;;;;;;5092726;28;20098;-79
2022/01/29 13:56:29;;;;;;;7.32;2.35;;;;;;;;;;5110551;28;20129;-78
2022/01/29 13:59:09;;;;;;;9.00;2.42;;;;;;;;;;5093051;27;20049;-79
2022/01/29 14:01:38;;;;;;;14.68;5.50;;;;;;;;;;5087244;28;20056;-79
2022/01/29 14:04:06;;;;;;;7.55;2.58;;;;;;;;;;5093158;28;20125;-79
2022/01/29 14:06:48;;;;;;;5.28;1.63;;;;;;;;;;5091673;28;20056;-78
2022/01/29 14:09:19;;;;;;;6.28;2.15;;;;;;;;;;5111421;27;20048;-78
2022/01/29 14:11:45;;;;;;;;;;;;;;;;;;5109324;28;20060;-80
2022/01/29 14:14:13;;;;;;;8.85;2.20;;;;;;;;;;5107286;28;42391;-79
2022/01/29 14:16:41;;;;;;;6.25;1.98;;;;;;;;;;5107462;27;20556;-79
2022/01/29 14:19:21;;;;;;;12.00;2.10;;;;;;;;;;5089731;28;20134;-79
2022/01/29 14:21:50;;;;;;;8.25;2.42;;;;;;;;;;5089733;28;20088;-79
2022/01/29 14:24:18;;;;;;;12.25;3.05;;;;;;;;;;5107826;28;20056;-79
2022/01/29 14:26:46;;;;;;;8.20;2.35;;;;;;;;;;5089613;28;20055;-79
2022/01/29 14:29:14;;;;;;;10.38;1.88;;;;;;;;;;5109760;27;20060;-79
2022/01/29 14:31:42;;;;;;;7.97;1.92;;;;;;;;;;5090921;28;20052;-80
2022/01/29 14:34:10;;;;;;;11.48;2.97;;;;;;;;;;5087932;28;20052;-79
2022/01/29 14:36:42;;;;;;;12.55;2.63;;;;;;;;;;5094473;27;20518;-79
2022/01/29 14:39:09;;;;;;;11.77;2.15;;;;;;;;;;5080302;28;20060;-78
2022/01/29 14:41:46;;;;;;;9.32;1.60;;;;;;;;;;5079244;28;20061;-79
2022/01/29 14:44:15;;;;;;;11.32;2.22;;;;;;;;;;5092496;28;20557;-78